sensor_id;sensor_type;location;lat;lon;timestamp;temperature;humidity
7970;DHT22;4030;52.362;9.206;2023-02-01T00:00:11;6.20;95.00
7970;DHT22;4030;52.362;9.206;2023-02-01T00:02:37;6.60;94.50
7970;DHT22;4030;52.362;9.206;2023-02-01T00:05:07;6.20;95.00
7970;DHT22;4030;52.362;9.206;2023-02-01T00:10:00;6.50;95.00
7970;DHT22;4030;52.362;9.206;2023-02-01T00:12:26;6.40;95.00
7970;DHT22;4030;52.362;9.206;2023-02-01T00:14:51;6.30;94.20
7970;DHT22;4030;52.362;9.206;2023-02-01T00:39:13;6.10;94.80
7970;DHT22;4030;52.362;9.206;2023-02-01T00:41:39;6.30;94.90
7970;DHT22;4030;52.362;9.206;2023-02-01T00:46:32;5.80;94.70
7970;DHT22;4030;52.362;9.206;2023-02-01T00:48:57;6.10;94.80
7970;DHT22;4030;52.362;9.206;2023-02-01T00:51:26;6.20;94.80
7970;DHT22;4030;52.362;9.206;2023-02-01T00:53:54;6.00;94.70
7970;DHT22;4030;52.362;9.206;2023-02-01T00:56:20;6.20;94.80
7970;DHT22;4030;52.362;9.206;2023-02-01T00:58:46;6.10;94.80
7970;DHT22;4030;52.362;9.206;2023-02-01T01:01:17;6.30;94.90
7970;DHT22;4030;52.362;9.206;2023-02-01T01:03:50;6.30;93.70
7970;DHT22;4030;52.362;9.206;2023-02-01T01:06:21;6.20;94.80
7970;DHT22;4030;52.362;9.206;2023-02-01T01:08:51;6.10;93.30
7970;DHT22;4030;52.362;9.206;2023-02-01T01:11:21;6.10;94.80
7970;DHT22;4030;52.362;9.206;2023-02-01T01:13:50;6.10;93.30
7970;DHT22;4030;52.362;9.206;2023-02-01T01:16:17;6.10;93.30
7970;DHT22;4030;52.362;9.206;2023-02-01T01:18:44;5.80;94.60
7970;DHT22;4030;52.362;9.206;2023-02-01T01:21:12;5.90;94.80
7970;DHT22;4030;52.362;9.206;2023-02-01T01:23:39;5.70;94.70
7970;DHT22;4030;52.362;9.206;2023-02-01T01:26:09;5.80;94.70
7970;DHT22;4030;52.362;9.206;2023-02-01T01:28:37;5.80;94.50
7970;DHT22;4030;52.362;9.206;2023-02-01T01:31:03;6.10;93.30
7970;DHT22;4030;52.362;9.206;2023-02-01T01:43:17;5.80;94.70
7970;DHT22;4030;52.362;9.206;2023-02-01T01:45:45;6.20;94.90
7970;DHT22;4030;52.362;9.206;2023-02-01T01:48:25;5.80;94.70
7970;DHT22;4030;52.362;9.206;2023-02-01T01:51:03;5.80;94.70
7970;DHT22;4030;52.362;9.206;2023-02-01T01:53:41;6.20;94.90
7970;DHT22;4030;52.362;9.206;2023-02-01T01:56:11;6.00;93.20
7970;DHT22;4030;52.362;9.206;2023-02-01T01:58:37;6.10;94.80
7970;DHT22;4030;52.362;9.206;2023-02-01T02:01:02;6.10;94.30
7970;DHT22;4030;52.362;9.206;2023-02-01T02:03:35;6.30;93.40
7970;DHT22;4030;52.362;9.206;2023-02-01T02:06:06;6.10;93.30
7970;DHT22;4030;52.362;9.206;2023-02-01T02:08:39;5.90;94.70
7970;DHT22;4030;52.362;9.206;2023-02-01T02:13:36;6.20;93.50
7970;DHT22;4030;52.362;9.206;2023-02-01T02:34:53;6.30;94.90
7970;DHT22;4030;52.362;9.206;2023-02-01T02:40:07;6.10;93.30
7970;DHT22;4030;52.362;9.206;2023-02-01T02:48:59;6.40;93.90
7970;DHT22;4030;52.362;9.206;2023-02-01T02:51:55;5.80;94.70
7970;DHT22;4030;52.362;9.206;2023-02-01T02:54:46;6.40;94.90
7970;DHT22;4030;52.362;9.206;2023-02-01T02:57:24;6.10;93.50
7970;DHT22;4030;52.362;9.206;2023-02-01T03:00:13;6.50;94.90
7970;DHT22;4030;52.362;9.206;2023-02-01T03:03:00;6.20;94.80
7970;DHT22;4030;52.362;9.206;2023-02-01T03:05:46;6.10;94.70
7970;DHT22;4030;52.362;9.206;2023-02-01T03:11:07;5.80;94.20
7970;DHT22;4030;52.362;9.206;2023-02-01T03:19:12;6.40;94.50
7970;DHT22;4030;52.362;9.206;2023-02-01T03:21:48;6.30;93.90
7970;DHT22;4030;52.362;9.206;2023-02-01T03:24:17;6.30;94.80
7970;DHT22;4030;52.362;9.206;2023-02-01T03:26:53;5.90;94.70
7970;DHT22;4030;52.362;9.206;2023-02-01T03:29:25;6.20;93.20
7970;DHT22;4030;52.362;9.206;2023-02-01T03:31:55;6.50;94.80
7970;DHT22;4030;52.362;9.206;2023-02-01T03:34:21;6.20;94.70
7970;DHT22;4030;52.362;9.206;2023-02-01T03:36:54;6.40;94.70
7970;DHT22;4030;52.362;9.206;2023-02-01T03:39:38;5.90;94.10
7970;DHT22;4030;52.362;9.206;2023-02-01T03:42:16;6.50;94.80
7970;DHT22;4030;52.362;9.206;2023-02-01T03:44:51;6.50;94.80
7970;DHT22;4030;52.362;9.206;2023-02-01T03:47:43;6.40;93.40
7970;DHT22;4030;52.362;9.206;2023-02-01T03:52:48;6.40;94.70
7970;DHT22;4030;52.362;9.206;2023-02-01T03:55:20;5.90;94.60
7970;DHT22;4030;52.362;9.206;2023-02-01T03:58:07;6.20;93.30
7970;DHT22;4030;52.362;9.206;2023-02-01T04:00:37;6.00;94.60
7970;DHT22;4030;52.362;9.206;2023-02-01T04:03:04;6.40;94.60
7970;DHT22;4030;52.362;9.206;2023-02-01T04:05:31;6.30;93.80
7970;DHT22;4030;52.362;9.206;2023-02-01T04:10:24;6.00;93.30
7970;DHT22;4030;52.362;9.206;2023-02-01T04:12:50;6.50;94.60
7970;DHT22;4030;52.362;9.206;2023-02-01T04:20:08;6.30;93.30
7970;DHT22;4030;52.362;9.206;2023-02-01T04:22:34;6.10;94.60
7970;DHT22;4030;52.362;9.206;2023-02-01T04:25:00;6.20;94.40
7970;DHT22;4030;52.362;9.206;2023-02-01T04:29:52;6.40;94.00
7970;DHT22;4030;52.362;9.206;2023-02-01T04:32:18;6.30;93.30
7970;DHT22;4030;52.362;9.206;2023-02-01T04:34:45;6.50;94.80
7970;DHT22;4030;52.362;9.206;2023-02-01T04:37:11;6.50;94.60
7970;DHT22;4030;52.362;9.206;2023-02-01T04:42:03;6.10;93.70
7970;DHT22;4030;52.362;9.206;2023-02-01T04:49:21;6.40;94.10
7970;DHT22;4030;52.362;9.206;2023-02-01T04:54:13;6.60;94.40
7970;DHT22;4030;52.362;9.206;2023-02-01T04:59:05;6.00;94.70
7970;DHT22;4030;52.362;9.206;2023-02-01T05:01:31;6.00;94.80
7970;DHT22;4030;52.362;9.206;2023-02-01T05:03:57;6.30;95.00
7970;DHT22;4030;52.362;9.206;2023-02-01T05:06:23;6.30;93.50
7970;DHT22;4030;52.362;9.206;2023-02-01T05:11:15;6.50;94.20
7970;DHT22;4030;52.362;9.206;2023-02-01T05:14:00;6.20;94.90
7970;DHT22;4030;52.362;9.206;2023-02-01T05:16:26;6.30;93.60
7970;DHT22;4030;52.362;9.206;2023-02-01T05:18:52;6.10;94.50
7970;DHT22;4030;52.362;9.206;2023-02-01T05:21:18;6.30;95.10
7970;DHT22;4030;52.362;9.206;2023-02-01T05:26:28;6.00;95.10
7970;DHT22;4030;52.362;9.206;2023-02-01T05:28:54;6.40;94.60
7970;DHT22;4030;52.362;9.206;2023-02-01T05:31:20;6.30;93.70
7970;DHT22;4030;52.362;9.206;2023-02-01T05:33:46;6.10;95.00
7970;DHT22;4030;52.362;9.206;2023-02-01T05:36:12;6.30;94.40
7970;DHT22;4030;52.362;9.206;2023-02-01T05:55:41;6.30;93.80
7970;DHT22;4030;52.362;9.206;2023-02-01T05:58:07;6.00;95.20
7970;DHT22;4030;52.362;9.206;2023-02-01T06:02:59;6.50;95.40
7970;DHT22;4030;52.362;9.206;2023-02-01T06:05:25;6.30;94.80
7970;DHT22;4030;52.362;9.206;2023-02-01T06:10:17;6.40;94.30
7970;DHT22;4030;52.362;9.206;2023-02-01T06:12:44;6.10;95.30
7970;DHT22;4030;52.362;9.206;2023-02-01T06:15:14;6.50;94.50
7970;DHT22;4030;52.362;9.206;2023-02-01T06:17:42;6.00;94.30
7970;DHT22;4030;52.362;9.206;2023-02-01T06:20:10;6.60;95.60
7970;DHT22;4030;52.362;9.206;2023-02-01T06:25:08;6.30;94.10
7970;DHT22;4030;52.362;9.206;2023-02-01T06:27:35;6.50;95.70
7970;DHT22;4030;52.362;9.206;2023-02-01T06:32:28;6.20;95.50
7970;DHT22;4030;52.362;9.206;2023-02-01T06:37:21;6.30;95.70
7970;DHT22;4030;52.362;9.206;2023-02-01T06:39:48;6.10;95.60
7970;DHT22;4030;52.362;9.206;2023-02-01T06:42:14;6.10;95.70
7970;DHT22;4030;52.362;9.206;2023-02-01T06:44:40;6.40;95.90
7970;DHT22;4030;52.362;9.206;2023-02-01T06:54:26;6.00;95.80
7970;DHT22;4030;52.362;9.206;2023-02-01T07:04:13;6.30;94.60
7970;DHT22;4030;52.362;9.206;2023-02-01T07:06:39;6.30;94.60
7970;DHT22;4030;52.362;9.206;2023-02-01T07:09:05;6.10;96.00
7970;DHT22;4030;52.362;9.206;2023-02-01T07:11:32;5.90;95.70
7970;DHT22;4030;52.362;9.206;2023-02-01T07:13:58;5.90;96.00
7970;DHT22;4030;52.362;9.206;2023-02-01T07:16:24;6.30;94.70
7970;DHT22;4030;52.362;9.206;2023-02-01T07:18:51;6.50;96.30
7970;DHT22;4030;52.362;9.206;2023-02-01T07:21:18;6.20;96.10
7970;DHT22;4030;52.362;9.206;2023-02-01T07:23:45;6.60;95.30
7970;DHT22;4030;52.362;9.206;2023-02-01T07:26:12;6.00;94.70
7970;DHT22;4030;52.362;9.206;2023-02-01T07:28:39;6.30;94.70
7970;DHT22;4030;52.362;9.206;2023-02-01T07:31:14;6.60;96.30
7970;DHT22;4030;52.362;9.206;2023-02-01T07:36:11;6.40;94.80
7970;DHT22;4030;52.362;9.206;2023-02-01T07:41:05;6.40;96.20
7970;DHT22;4030;52.362;9.206;2023-02-01T07:43:32;6.30;94.70
7970;DHT22;4030;52.362;9.206;2023-02-01T07:46:02;6.10;96.20
7970;DHT22;4030;52.362;9.206;2023-02-01T07:48:29;6.00;96.10
7970;DHT22;4030;52.362;9.206;2023-02-01T07:51:03;6.40;96.30
7970;DHT22;4030;52.362;9.206;2023-02-01T07:53:32;6.30;96.20
7970;DHT22;4030;52.362;9.206;2023-02-01T07:58:25;6.70;96.40
7970;DHT22;4030;52.362;9.206;2023-02-01T08:03:36;6.60;96.20
7970;DHT22;4030;52.362;9.206;2023-02-01T08:06:02;6.80;95.00
7970;DHT22;4030;52.362;9.206;2023-02-01T08:08:28;6.50;95.60
7970;DHT22;4030;52.362;9.206;2023-02-01T08:11:01;6.50;94.50
7970;DHT22;4030;52.362;9.206;2023-02-01T08:13:29;6.60;96.10
7970;DHT22;4030;52.362;9.206;2023-02-01T08:15:59;6.70;95.80
7970;DHT22;4030;52.362;9.206;2023-02-01T08:18:26;6.80;96.10
7970;DHT22;4030;52.362;9.206;2023-02-01T08:20:51;6.40;95.90
7970;DHT22;4030;52.362;9.206;2023-02-01T08:23:17;6.80;95.90
7970;DHT22;4030;52.362;9.206;2023-02-01T08:25:43;6.50;95.70
7970;DHT22;4030;52.362;9.206;2023-02-01T08:28:09;6.90;95.80
7970;DHT22;4030;52.362;9.206;2023-02-01T08:30:37;6.90;95.80
7970;DHT22;4030;52.362;9.206;2023-02-01T08:33:04;7.10;95.90
7970;DHT22;4030;52.362;9.206;2023-02-01T08:35:35;6.80;95.00
7970;DHT22;4030;52.362;9.206;2023-02-01T08:38:01;6.60;95.10
7970;DHT22;4030;52.362;9.206;2023-02-01T08:40:27;7.00;94.70
7970;DHT22;4030;52.362;9.206;2023-02-01T08:42:53;7.10;95.30
7970;DHT22;4030;52.362;9.206;2023-02-01T08:45:21;7.30;94.00
7970;DHT22;4030;52.362;9.206;2023-02-01T08:47:52;7.30;95.30
7970;DHT22;4030;52.362;9.206;2023-02-01T08:50:19;7.10;95.00
7970;DHT22;4030;52.362;9.206;2023-02-01T08:52:46;7.70;95.10
7970;DHT22;4030;52.362;9.206;2023-02-01T08:55:12;7.40;94.90
7970;DHT22;4030;52.362;9.206;2023-02-01T08:57:39;7.30;94.70
7970;DHT22;4030;52.362;9.206;2023-02-01T09:00:06;7.70;93.50
7970;DHT22;4030;52.362;9.206;2023-02-01T09:05:00;8.00;94.50
7970;DHT22;4030;52.362;9.206;2023-02-01T09:17:12;8.20;93.40
7970;DHT22;4030;52.362;9.206;2023-02-01T09:19:39;8.40;94.10
7970;DHT22;4030;52.362;9.206;2023-02-01T09:24:30;8.10;93.90
7970;DHT22;4030;52.362;9.206;2023-02-01T09:26:56;8.10;93.70
7970;DHT22;4030;52.362;9.206;2023-02-01T09:47:16;8.40;93.40
7970;DHT22;4030;52.362;9.206;2023-02-01T09:50:09;8.30;92.90
7970;DHT22;4030;52.362;9.206;2023-02-01T09:55:40;8.60;92.30
7970;DHT22;4030;52.362;9.206;2023-02-01T09:58:16;8.80;92.70
7970;DHT22;4030;52.362;9.206;2023-02-01T10:01:09;8.30;93.20
7970;DHT22;4030;52.362;9.206;2023-02-01T10:09:19;8.70;93.20
7970;DHT22;4030;52.362;9.206;2023-02-01T10:11:54;8.90;92.10
7970;DHT22;4030;52.362;9.206;2023-02-01T10:17:38;9.00;91.90
7970;DHT22;4030;52.362;9.206;2023-02-01T10:20:30;9.20;93.00
7970;DHT22;4030;52.362;9.206;2023-02-01T10:26:19;8.80;92.90
7970;DHT22;4030;52.362;9.206;2023-02-01T10:28:50;8.50;92.80
7970;DHT22;4030;52.362;9.206;2023-02-01T10:31:18;8.80;91.90
7970;DHT22;4030;52.362;9.206;2023-02-01T10:33:47;8.90;93.00
7970;DHT22;4030;52.362;9.206;2023-02-01T10:36:40;8.40;92.80
7970;DHT22;4030;52.362;9.206;2023-02-01T10:39:11;8.70;92.90
7970;DHT22;4030;52.362;9.206;2023-02-01T10:41:39;8.90;92.30
7970;DHT22;4030;52.362;9.206;2023-02-01T10:44:15;8.80;92.60
7970;DHT22;4030;52.362;9.206;2023-02-01T10:46:42;8.60;92.60
7970;DHT22;4030;52.362;9.206;2023-02-01T10:49:16;8.70;91.80
7970;DHT22;4030;52.362;9.206;2023-02-01T10:51:58;8.60;91.80
7970;DHT22;4030;52.362;9.206;2023-02-01T10:54:38;8.80;92.40
7970;DHT22;4030;52.362;9.206;2023-02-01T10:57:09;8.50;91.70
7970;DHT22;4030;52.362;9.206;2023-02-01T10:59:42;8.50;92.30
7970;DHT22;4030;52.362;9.206;2023-02-01T11:05:02;8.30;92.80
7970;DHT22;4030;52.362;9.206;2023-02-01T11:07:29;8.70;92.90
7970;DHT22;4030;52.362;9.206;2023-02-01T11:09:55;8.20;92.60
7970;DHT22;4030;52.362;9.206;2023-02-01T11:12:36;8.60;92.90
7970;DHT22;4030;52.362;9.206;2023-02-01T11:15:18;8.50;91.70
7970;DHT22;4030;52.362;9.206;2023-02-01T11:17:46;8.30;91.70
7970;DHT22;4030;52.362;9.206;2023-02-01T11:20:18;8.40;91.60
7970;DHT22;4030;52.362;9.206;2023-02-01T11:22:56;8.70;92.80
7970;DHT22;4030;52.362;9.206;2023-02-01T11:25:23;8.40;92.70
7970;DHT22;4030;52.362;9.206;2023-02-01T11:27:51;8.70;92.70
7970;DHT22;4030;52.362;9.206;2023-02-01T11:30:33;8.50;91.60
7970;DHT22;4030;52.362;9.206;2023-02-01T11:33:01;8.80;92.80
7970;DHT22;4030;52.362;9.206;2023-02-01T11:35:29;8.50;92.60
7970;DHT22;4030;52.362;9.206;2023-02-01T11:37:58;8.50;91.60
7970;DHT22;4030;52.362;9.206;2023-02-01T11:40:29;8.20;92.40
7970;DHT22;4030;52.362;9.206;2023-02-01T11:43:22;8.50;91.40
7970;DHT22;4030;52.362;9.206;2023-02-01T11:46:01;8.70;92.50
7970;DHT22;4030;52.362;9.206;2023-02-01T11:48:30;8.70;91.40
7970;DHT22;4030;52.362;9.206;2023-02-01T11:54:18;9.10;92.30
7970;DHT22;4030;52.362;9.206;2023-02-01T12:06:09;8.60;91.60
7970;DHT22;4030;52.362;9.206;2023-02-01T12:09:10;9.10;91.90
7970;DHT22;4030;52.362;9.206;2023-02-01T12:38:24;8.70;92.80
7970;DHT22;4030;52.362;9.206;2023-02-01T12:46:45;8.50;92.80
7970;DHT22;4030;52.362;9.206;2023-02-01T12:49:19;8.70;91.70
7970;DHT22;4030;52.362;9.206;2023-02-01T12:51:54;9.10;91.90
7970;DHT22;4030;52.362;9.206;2023-02-01T12:54:35;8.90;91.70
7970;DHT22;4030;52.362;9.206;2023-02-01T12:57:25;8.90;92.30
7970;DHT22;4030;52.362;9.206;2023-02-01T13:05:55;9.10;92.40
7970;DHT22;4030;52.362;9.206;2023-02-01T13:08:30;8.90;92.60
7970;DHT22;4030;52.362;9.206;2023-02-01T13:11:09;8.30;91.80
7970;DHT22;4030;52.362;9.206;2023-02-01T13:14:11;8.60;93.10
7970;DHT22;4030;52.362;9.206;2023-02-01T13:16:56;8.50;92.10
7970;DHT22;4030;52.362;9.206;2023-02-01T13:22:18;8.30;93.30
7970;DHT22;4030;52.362;9.206;2023-02-01T13:24:54;7.90;92.90
7970;DHT22;4030;52.362;9.206;2023-02-01T13:33:18;8.00;93.20
7970;DHT22;4030;52.362;9.206;2023-02-01T13:44:34;8.00;93.10
7970;DHT22;4030;52.362;9.206;2023-02-01T13:47:20;7.90;94.10
7970;DHT22;4030;52.362;9.206;2023-02-01T13:50:01;7.70;92.90
7970;DHT22;4030;52.362;9.206;2023-02-01T13:52:37;7.70;92.90
7970;DHT22;4030;52.362;9.206;2023-02-01T13:57:42;7.30;93.70
7970;DHT22;4030;52.362;9.206;2023-02-01T14:10:48;7.30;93.70
7970;DHT22;4030;52.362;9.206;2023-02-01T14:16:12;6.80;92.60
7970;DHT22;4030;52.362;9.206;2023-02-01T14:32:21;6.90;93.40
7970;DHT22;4030;52.362;9.206;2023-02-01T14:47:45;7.10;93.70
7970;DHT22;4030;52.362;9.206;2023-02-01T14:53:18;6.50;93.50
7970;DHT22;4030;52.362;9.206;2023-02-01T14:58:47;6.70;92.10
7970;DHT22;4030;52.362;9.206;2023-02-01T15:01:21;6.60;93.60
7970;DHT22;4030;52.362;9.206;2023-02-01T15:04:13;6.70;92.20
7970;DHT22;4030;52.362;9.206;2023-02-01T15:09:28;6.70;92.20
7970;DHT22;4030;52.362;9.206;2023-02-01T15:17:28;6.70;92.30
7970;DHT22;4030;52.362;9.206;2023-02-01T15:20:16;6.60;92.30
7970;DHT22;4030;52.362;9.206;2023-02-01T15:23:15;6.60;92.90
7970;DHT22;4030;52.362;9.206;2023-02-01T15:25:46;6.60;92.30
7970;DHT22;4030;52.362;9.206;2023-02-01T15:28:15;6.70;93.10
7970;DHT22;4030;52.362;9.206;2023-02-01T15:30:52;6.60;92.30
7970;DHT22;4030;52.362;9.206;2023-02-01T15:33:20;6.70;93.80
7970;DHT22;4030;52.362;9.206;2023-02-01T15:35:54;6.70;92.70
7970;DHT22;4030;52.362;9.206;2023-02-01T15:38:25;6.90;93.80
7970;DHT22;4030;52.362;9.206;2023-02-01T15:40:57;6.40;93.20
7970;DHT22;4030;52.362;9.206;2023-02-01T15:43:31;6.60;93.90
7970;DHT22;4030;52.362;9.206;2023-02-01T15:46:09;6.50;92.40
7970;DHT22;4030;52.362;9.206;2023-02-01T15:48:53;6.20;93.20
7970;DHT22;4030;52.362;9.206;2023-02-01T15:51:22;6.60;94.00
7970;DHT22;4030;52.362;9.206;2023-02-01T15:53:58;6.40;94.00
7970;DHT22;4030;52.362;9.206;2023-02-01T15:56:38;6.70;93.50
7970;DHT22;4030;52.362;9.206;2023-02-01T15:59:16;6.40;92.60
7970;DHT22;4030;52.362;9.206;2023-02-01T16:01:43;6.50;94.20
7970;DHT22;4030;52.362;9.206;2023-02-01T16:04:27;6.40;94.10
7970;DHT22;4030;52.362;9.206;2023-02-01T16:07:01;6.20;94.10
7970;DHT22;4030;52.362;9.206;2023-02-01T16:09:54;6.40;94.10
7970;DHT22;4030;52.362;9.206;2023-02-01T16:17:25;6.30;94.00
7970;DHT22;4030;52.362;9.206;2023-02-01T16:29:35;6.50;94.30
7970;DHT22;4030;52.362;9.206;2023-02-01T16:36:54;6.20;93.80
7970;DHT22;4030;52.362;9.206;2023-02-01T16:39:22;6.60;94.60
7970;DHT22;4030;52.362;9.206;2023-02-01T16:44:14;6.30;94.60
7970;DHT22;4030;52.362;9.206;2023-02-01T16:46:45;6.00;94.50
7970;DHT22;4030;52.362;9.206;2023-02-01T16:49:22;6.30;93.10
7970;DHT22;4030;52.362;9.206;2023-02-01T16:51:50;6.40;94.70
7970;DHT22;4030;52.362;9.206;2023-02-01T16:56:45;6.30;93.10
7970;DHT22;4030;52.362;9.206;2023-02-01T16:59:11;6.40;94.20
7970;DHT22;4030;52.362;9.206;2023-02-01T17:01:38;6.60;94.70
7970;DHT22;4030;52.362;9.206;2023-02-01T17:11:25;6.20;93.50
7970;DHT22;4030;52.362;9.206;2023-02-01T17:13:52;6.30;93.20
7970;DHT22;4030;52.362;9.206;2023-02-01T17:18:48;6.30;93.20
7970;DHT22;4030;52.362;9.206;2023-02-01T17:31:09;6.20;93.40
7970;DHT22;4030;52.362;9.206;2023-02-01T17:33:38;6.30;95.00
7970;DHT22;4030;52.362;9.206;2023-02-01T17:36:04;6.00;94.60
7970;DHT22;4030;52.362;9.206;2023-02-01T17:38:32;6.70;93.90
7970;DHT22;4030;52.362;9.206;2023-02-01T17:45:55;6.20;93.60
7970;DHT22;4030;52.362;9.206;2023-02-01T17:48:30;6.40;95.10
7970;DHT22;4030;52.362;9.206;2023-02-01T17:50:56;6.10;95.00
7970;DHT22;4030;52.362;9.206;2023-02-01T17:53:25;6.10;95.10
7970;DHT22;4030;52.362;9.206;2023-02-01T17:55:52;6.60;95.10
7970;DHT22;4030;52.362;9.206;2023-02-01T17:58:18;6.30;93.70
7970;DHT22;4030;52.362;9.206;2023-02-01T18:00:45;6.40;95.30
7970;DHT22;4030;52.362;9.206;2023-02-01T18:03:27;6.30;93.80
7970;DHT22;4030;52.362;9.206;2023-02-01T18:05:56;6.00;94.90
7970;DHT22;4030;52.362;9.206;2023-02-01T18:08:24;6.00;94.30
7970;DHT22;4030;52.362;9.206;2023-02-01T18:10:56;6.40;95.30
7970;DHT22;4030;52.362;9.206;2023-02-01T18:13:27;6.20;95.20
7970;DHT22;4030;52.362;9.206;2023-02-01T18:15:53;6.30;95.20
7970;DHT22;4030;52.362;9.206;2023-02-01T18:20:47;6.30;93.80
7970;DHT22;4030;52.362;9.206;2023-02-01T18:23:19;6.10;95.20
7970;DHT22;4030;52.362;9.206;2023-02-01T18:25:46;6.50;95.30
7970;DHT22;4030;52.362;9.206;2023-02-01T18:28:14;6.10;94.50
7970;DHT22;4030;52.362;9.206;2023-02-01T18:30:41;6.20;94.40
7970;DHT22;4030;52.362;9.206;2023-02-01T18:33:17;6.30;95.20
7970;DHT22;4030;52.362;9.206;2023-02-01T18:38:10;6.20;95.20
7970;DHT22;4030;52.362;9.206;2023-02-01T18:43:18;6.10;95.20
7970;DHT22;4030;52.362;9.206;2023-02-01T18:45:45;6.00;95.20
7970;DHT22;4030;52.362;9.206;2023-02-01T18:48:13;6.60;94.60
7970;DHT22;4030;52.362;9.206;2023-02-01T18:50:42;6.10;95.20
7970;DHT22;4030;52.362;9.206;2023-02-01T18:53:17;6.10;95.20
7970;DHT22;4030;52.362;9.206;2023-02-01T18:55:45;6.40;95.30
7970;DHT22;4030;52.362;9.206;2023-02-01T18:58:14;6.60;94.50
7970;DHT22;4030;52.362;9.206;2023-02-01T19:00:41;6.00;95.10
7970;DHT22;4030;52.362;9.206;2023-02-01T19:03:10;6.40;93.90
7970;DHT22;4030;52.362;9.206;2023-02-01T19:05:37;6.00;95.10
7970;DHT22;4030;52.362;9.206;2023-02-01T19:15:23;6.30;94.10
7970;DHT22;4030;52.362;9.206;2023-02-01T19:17:51;6.30;95.30
7970;DHT22;4030;52.362;9.206;2023-02-01T19:20:20;6.20;95.20
7970;DHT22;4030;52.362;9.206;2023-02-01T19:25:19;6.20;95.20
7970;DHT22;4030;52.362;9.206;2023-02-01T19:27:47;6.30;93.90
7970;DHT22;4030;52.362;9.206;2023-02-01T19:30:13;6.60;95.40
7970;DHT22;4030;52.362;9.206;2023-02-01T19:32:39;6.40;95.30
7970;DHT22;4030;52.362;9.206;2023-02-01T19:35:06;6.30;93.80
7970;DHT22;4030;52.362;9.206;2023-02-01T19:42:25;6.60;93.90
7970;DHT22;4030;52.362;9.206;2023-02-01T19:49:43;6.40;95.20
7970;DHT22;4030;52.362;9.206;2023-02-01T19:52:09;6.50;95.30
7970;DHT22;4030;52.362;9.206;2023-02-01T19:54:35;6.50;95.10
7970;DHT22;4030;52.362;9.206;2023-02-01T19:57:01;6.00;94.60
7970;DHT22;4030;52.362;9.206;2023-02-01T20:04:20;6.70;94.10
7970;DHT22;4030;52.362;9.206;2023-02-01T20:06:47;6.50;95.30
7970;DHT22;4030;52.362;9.206;2023-02-01T20:09:20;6.00;94.20
7970;DHT22;4030;52.362;9.206;2023-02-01T20:11:51;6.40;95.20
7970;DHT22;4030;52.362;9.206;2023-02-01T20:16:45;6.50;94.80
7970;DHT22;4030;52.362;9.206;2023-02-01T20:21:38;6.00;93.90
7970;DHT22;4030;52.362;9.206;2023-02-01T20:24:07;6.20;95.20
7970;DHT22;4030;52.362;9.206;2023-02-01T20:26:34;6.50;94.60
7970;DHT22;4030;52.362;9.206;2023-02-01T20:29:00;6.30;93.70
7970;DHT22;4030;52.362;9.206;2023-02-01T20:31:27;6.00;95.00
7970;DHT22;4030;52.362;9.206;2023-02-01T20:33:58;6.40;93.80
7970;DHT22;4030;52.362;9.206;2023-02-01T20:36:26;6.40;95.20
7970;DHT22;4030;52.362;9.206;2023-02-01T20:38:53;6.20;95.20
7970;DHT22;4030;52.362;9.206;2023-02-01T20:41:21;6.30;93.70
7970;DHT22;4030;52.362;9.206;2023-02-01T20:43:47;6.60;95.10
7970;DHT22;4030;52.362;9.206;2023-02-01T20:48:43;6.40;95.20
7970;DHT22;4030;52.362;9.206;2023-02-01T20:51:10;6.50;95.30
7970;DHT22;4030;52.362;9.206;2023-02-01T20:58:30;6.30;95.10
7970;DHT22;4030;52.362;9.206;2023-02-01T21:00:56;6.00;95.00
7970;DHT22;4030;52.362;9.206;2023-02-01T21:03:21;6.20;94.40
7970;DHT22;4030;52.362;9.206;2023-02-01T21:05:49;6.60;95.30
7970;DHT22;4030;52.362;9.206;2023-02-01T21:08:17;6.40;93.70
7970;DHT22;4030;52.362;9.206;2023-02-01T21:10:53;6.70;95.30
7970;DHT22;4030;52.362;9.206;2023-02-01T21:13:24;6.40;95.10
7970;DHT22;4030;52.362;9.206;2023-02-01T21:15:51;6.40;93.70
7970;DHT22;4030;52.362;9.206;2023-02-01T21:18:17;6.60;94.30
7970;DHT22;4030;52.362;9.206;2023-02-01T21:20:43;6.50;94.40
7970;DHT22;4030;52.362;9.206;2023-02-01T21:23:12;6.30;93.80
7970;DHT22;4030;52.362;9.206;2023-02-01T21:25:39;6.50;95.20
7970;DHT22;4030;52.362;9.206;2023-02-01T21:28:05;6.50;94.70
7970;DHT22;4030;52.362;9.206;2023-02-01T21:35:25;6.50;95.20
7970;DHT22;4030;52.362;9.206;2023-02-01T21:37:51;6.40;95.20
7970;DHT22;4030;52.362;9.206;2023-02-01T21:40:17;6.40;93.70
7970;DHT22;4030;52.362;9.206;2023-02-01T21:42:42;6.00;95.00
7970;DHT22;4030;52.362;9.206;2023-02-01T21:45:14;6.40;93.70
7970;DHT22;4030;52.362;9.206;2023-02-01T21:47:40;6.60;95.30
7970;DHT22;4030;52.362;9.206;2023-02-01T21:50:17;6.30;95.10
7970;DHT22;4030;52.362;9.206;2023-02-01T21:55:11;6.50;95.30
7970;DHT22;4030;52.362;9.206;2023-02-01T21:57:37;6.30;95.20
7970;DHT22;4030;52.362;9.206;2023-02-01T22:00:05;6.60;95.40
7970;DHT22;4030;52.362;9.206;2023-02-01T22:02:33;6.10;94.90
7970;DHT22;4030;52.362;9.206;2023-02-01T22:17:11;6.40;93.80
7970;DHT22;4030;52.362;9.206;2023-02-01T22:19:38;6.30;95.20
7970;DHT22;4030;52.362;9.206;2023-02-01T22:24:31;6.70;94.60
7970;DHT22;4030;52.362;9.206;2023-02-01T22:36:44;6.30;94.30
7970;DHT22;4030;52.362;9.206;2023-02-01T22:39:12;6.20;95.20
7970;DHT22;4030;52.362;9.206;2023-02-01T22:41:38;6.30;95.30
7970;DHT22;4030;52.362;9.206;2023-02-01T22:44:04;6.50;95.30
7970;DHT22;4030;52.362;9.206;2023-02-01T22:46:30;6.30;95.20
7970;DHT22;4030;52.362;9.206;2023-02-01T22:48:56;6.30;95.10
7970;DHT22;4030;52.362;9.206;2023-02-01T22:51:25;6.40;93.70
7970;DHT22;4030;52.362;9.206;2023-02-01T22:56:28;6.60;95.30
7970;DHT22;4030;52.362;9.206;2023-02-01T22:59:00;6.60;93.90
7970;DHT22;4030;52.362;9.206;2023-02-01T23:03:59;6.10;94.50
7970;DHT22;4030;52.362;9.206;2023-02-01T23:06:26;6.50;94.20
7970;DHT22;4030;52.362;9.206;2023-02-01T23:09:01;6.10;94.80
7970;DHT22;4030;52.362;9.206;2023-02-01T23:11:36;6.50;95.30
7970;DHT22;4030;52.362;9.206;2023-02-01T23:14:03;6.60;95.50
7970;DHT22;4030;52.362;9.206;2023-02-01T23:16:28;5.90;95.00
7970;DHT22;4030;52.362;9.206;2023-02-01T23:21:21;6.00;95.10
7970;DHT22;4030;52.362;9.206;2023-02-01T23:23:50;6.10;95.20
7970;DHT22;4030;52.362;9.206;2023-02-01T23:26:22;6.50;95.30
7970;DHT22;4030;52.362;9.206;2023-02-01T23:28:51;6.00;95.10
7970;DHT22;4030;52.362;9.206;2023-02-01T23:31:22;6.40;95.20
7970;DHT22;4030;52.362;9.206;2023-02-01T23:33:50;6.20;95.20
7970;DHT22;4030;52.362;9.206;2023-02-01T23:36:20;6.50;94.60
7970;DHT22;4030;52.362;9.206;2023-02-01T23:38:46;5.90;95.00
7970;DHT22;4030;52.362;9.206;2023-02-01T23:41:13;6.50;94.90
7970;DHT22;4030;52.362;9.206;2023-02-01T23:43:40;6.30;95.20
7970;DHT22;4030;52.362;9.206;2023-02-01T23:48:56;6.40;95.20
7970;DHT22;4030;52.362;9.206;2023-02-01T23:51:22;5.90;94.90
7970;DHT22;4030;52.362;9.206;2023-02-01T23:53:48;6.10;95.00
7970;DHT22;4030;52.362;9.206;2023-02-01T23:59:02;6.50;95.20
